createdAt,value
2022-09-12T00:01:11.335Z,100003.84
2022-09-12T00:03:42.281Z,100000.72
2022-09-12T00:06:18.159Z,100004.81
2022-09-12T00:08:49.170Z,100000.81
2022-09-12T00:11:16.167Z,100004.03
2022-09-12T00:13:43.762Z,100002.75
2022-09-12T00:16:21.082Z,100001.34
2022-09-12T00:18:48.477Z,100001.75
2022-09-12T00:21:16.994Z,100007.38
2022-09-12T00:23:44.142Z,99997.00
2022-09-12T00:26:11.570Z,100001.81
2022-09-12T00:28:40.764Z,99997.75
2022-09-12T00:31:11.750Z,99985.63
2022-09-12T00:33:39.849Z,99990.53
2022-09-12T00:36:10.716Z,99985.59
2022-09-12T00:38:38.868Z,99982.28
2022-09-12T00:41:06.445Z,99982.44
2022-09-12T00:43:36.675Z,99983.50
2022-09-12T00:46:34.711Z,99968.72
2022-09-12T00:49:09.685Z,99970.63
2022-09-12T00:51:37.914Z,99974.38
2022-09-12T00:54:12.847Z,99966.53
2022-09-12T00:56:44.156Z,99970.38
2022-09-12T00:59:19.643Z,99966.94
2022-09-12T01:01:48.846Z,99976.78
2022-09-12T01:04:18.371Z,99967.69
2022-09-12T01:06:46.669Z,99972.84
2022-09-12T01:09:17.765Z,99966.53
2022-09-12T01:11:47.147Z,99961.09
2022-09-12T01:14:15.498Z,99964.63
2022-09-12T01:16:43.871Z,99963.88
2022-09-12T01:19:18.328Z,99968.13
2022-09-12T01:21:54.360Z,99954.91
2022-09-12T01:24:54.371Z,99955.84
2022-09-12T01:27:53.604Z,99960.25
2022-09-12T01:30:44.909Z,99964.63
2022-09-12T01:33:11.810Z,99967.28
2022-09-12T01:36:10.379Z,99969.97
2022-09-12T01:38:45.234Z,99965.38
2022-09-12T01:41:27.339Z,99978.47
2022-09-12T01:44:13.195Z,99974.63
2022-09-12T01:46:59.233Z,99974.50
2022-09-12T01:49:36.931Z,99978.72
2022-09-12T01:52:23.518Z,99976.78
2022-09-12T01:54:57.974Z,99976.69
2022-09-12T01:57:32.296Z,99973.94
2022-09-12T02:00:04.569Z,99984.81
2022-09-12T02:02:38.859Z,99982.03
2022-09-12T02:05:20.912Z,99993.72
2022-09-12T02:08:07.436Z,99991.03
2022-09-12T02:10:48.859Z,99986.63
2022-09-12T02:13:25.897Z,99983.03
2022-09-12T02:15:59.030Z,99983.13
2022-09-12T02:18:30.235Z,99982.28
2022-09-12T02:20:57.652Z,99983.22
2022-09-12T02:23:28.823Z,99987.81
2022-09-12T02:26:02.261Z,99986.25
2022-09-12T02:28:38.153Z,99984.56
2022-09-12T02:31:11.432Z,99983.81
2022-09-12T02:33:48.552Z,99984.97
2022-09-12T02:36:31.812Z,99983.41
2022-09-12T02:38:58.870Z,99988.88
2022-09-12T02:41:26.645Z,99983.63
2022-09-12T02:43:54.055Z,99984.69
2022-09-12T02:46:29.885Z,99992.81
2022-09-12T02:48:58.019Z,99993.88
2022-09-12T02:51:26.213Z,99984.22
2022-09-12T02:53:54.115Z,99995.97
2022-09-12T02:56:28.766Z,99998.53
2022-09-12T02:59:00.217Z,99988.81
2022-09-12T03:01:47.153Z,99994.06
2022-09-12T03:04:38.760Z,100000.25
2022-09-12T03:07:37.874Z,100001.13
2022-09-12T03:10:28.810Z,99994.50
2022-09-12T03:13:18.748Z,99992.41
2022-09-12T03:16:16.018Z,99990.31
2022-09-12T03:18:51.664Z,99989.16
2022-09-12T03:21:26.607Z,99982.81
2022-09-12T03:24:02.971Z,99989.91
2022-09-12T03:26:40.598Z,100001.44
2022-09-12T03:29:08.742Z,100004.19
2022-09-12T03:31:35.725Z,100002.28
2022-09-12T03:34:02.739Z,100010.22
2022-09-12T03:36:30.902Z,100017.19
2022-09-12T03:38:57.854Z,100012.59
2022-09-12T03:41:24.910Z,100009.75
2022-09-12T03:43:52.128Z,100013.19
2022-09-12T03:46:19.078Z,100017.56
2022-09-12T03:48:46.117Z,100021.94
2022-09-12T03:51:13.333Z,100023.47
2022-09-12T03:53:40.257Z,100033.84
2022-09-12T03:56:09.961Z,100023.81
2022-09-12T03:58:38.059Z,100030.75
2022-09-12T04:01:18.770Z,100027.06
2022-09-12T04:03:49.244Z,100037.63
2022-09-12T04:06:22.399Z,100032.00
2022-09-12T04:08:52.275Z,100036.28
2022-09-12T04:11:23.930Z,100036.94
2022-09-12T04:13:52.007Z,100041.31
2022-09-12T04:16:19.858Z,100045.72
2022-09-12T04:18:49.891Z,100045.50
2022-09-12T04:21:19.527Z,100048.91
2022-09-12T04:23:46.475Z,100051.31
2022-09-12T04:26:14.908Z,100047.34
2022-09-12T04:28:46.465Z,100051.53
2022-09-12T04:31:15.803Z,100041.38
2022-09-12T04:33:43.589Z,100053.41
2022-09-12T04:36:17.893Z,100047.50
2022-09-12T04:38:48.141Z,100035.50
2022-09-12T04:41:16.568Z,100044.84
2022-09-12T04:43:50.048Z,100049.78
2022-09-12T04:46:36.501Z,100053.63
2022-09-12T04:49:03.918Z,100046.25
2022-09-12T04:51:34.028Z,100049.50
2022-09-12T04:54:07.182Z,100050.16
2022-09-12T04:56:39.944Z,100048.09
2022-09-12T04:59:09.113Z,100053.91
2022-09-12T05:01:36.927Z,100052.59
2022-09-12T05:04:03.969Z,100058.28
2022-09-12T05:06:34.541Z,100060.72
2022-09-12T05:09:04.168Z,100061.47
2022-09-12T05:12:02.644Z,100066.63
2022-09-12T05:14:24.397Z,100067.28
2022-09-12T05:16:51.459Z,100059.66
2022-09-12T05:19:18.900Z,100063.50
2022-09-12T05:21:46.211Z,100058.56
2022-09-12T05:24:13.375Z,100057.03
2022-09-12T05:26:40.594Z,100061.00
2022-09-12T05:29:09.213Z,100058.59
2022-09-12T05:31:37.218Z,100057.53
2022-09-12T05:34:04.791Z,100052.44
2022-09-12T05:36:33.499Z,100064.16
2022-09-12T05:39:01.277Z,100073.16
2022-09-12T05:41:35.915Z,100065.97
2022-09-12T05:44:10.578Z,100067.69
2022-09-12T05:46:41.738Z,100067.75
2022-09-12T05:49:13.738Z,100062.56
2022-09-12T05:51:43.552Z,100047.84
2022-09-12T05:54:13.994Z,100053.13
2022-09-12T05:56:43.221Z,100060.44
2022-09-12T05:59:31.687Z,100051.16
2022-09-12T06:01:58.996Z,100047.50
2022-09-12T06:04:28.197Z,100064.47
2022-09-12T06:06:55.392Z,100054.06
2022-09-12T06:09:25.450Z,100064.69
2022-09-12T06:11:53.090Z,100053.75
2022-09-12T06:14:20.216Z,100053.75
2022-09-12T06:16:50.045Z,100051.38
2022-09-12T06:19:20.134Z,100046.53
2022-09-12T06:21:49.846Z,100039.97
2022-09-12T06:24:18.542Z,100049.63
2022-09-12T06:26:47.015Z,100049.88
2022-09-12T06:29:18.906Z,100034.16
2022-09-12T06:31:46.440Z,100047.06
2022-09-12T06:34:16.307Z,100057.38
2022-09-12T06:36:46.102Z,100059.84
2022-09-12T06:39:18.990Z,100056.47
2022-09-12T06:41:46.994Z,100056.34
2022-09-12T06:44:20.254Z,100052.09
2022-09-12T06:46:48.678Z,100072.72
2022-09-12T06:49:32.172Z,100069.09
2022-09-12T06:52:01.126Z,100068.69
2022-09-12T06:54:28.080Z,100066.66
2022-09-12T06:56:55.133Z,100074.31
2022-09-12T06:59:23.006Z,100064.41
2022-09-12T07:02:00.398Z,100065.47
2022-09-12T07:04:30.408Z,100057.31
2022-09-12T07:07:06.631Z,100078.56
2022-09-12T07:09:34.036Z,100072.94
2022-09-12T07:12:04.435Z,100078.44
2022-09-12T07:14:31.983Z,100079.50
2022-09-12T07:16:59.279Z,100081.84
2022-09-12T07:19:26.347Z,100085.75
2022-09-12T07:21:56.611Z,100086.22
2022-09-12T07:24:26.250Z,100096.41
2022-09-12T07:27:17.231Z,100100.28
2022-09-12T07:29:47.987Z,100091.53
2022-09-12T07:32:15.210Z,100089.44
2022-09-12T07:34:42.582Z,100094.47
2022-09-12T07:37:10.277Z,100092.50
2022-09-12T07:39:38.064Z,100087.47
2022-09-12T07:42:13.672Z,100085.91
2022-09-12T07:44:41.378Z,100095.25
2022-09-12T07:47:10.005Z,100094.50
2022-09-12T07:49:39.146Z,100084.84
2022-09-12T07:52:06.538Z,100091.00
2022-09-12T07:54:33.512Z,100099.22
2022-09-12T07:57:00.584Z,100097.75
2022-09-12T07:59:50.851Z,100098.25
2022-09-12T08:02:17.391Z,100093.47
2022-09-12T08:04:47.797Z,100098.59
2022-09-12T08:07:15.705Z,100096.78
2022-09-12T08:09:42.650Z,100086.16
2022-09-12T08:12:11.653Z,100090.19
2022-09-12T08:14:39.142Z,100085.50
2022-09-12T08:17:06.809Z,100094.47
2022-09-12T08:19:34.242Z,100089.47
2022-09-12T08:22:03.025Z,100090.34
2022-09-12T08:24:30.153Z,100087.34
2022-09-12T08:26:59.096Z,100080.31
2022-09-12T08:29:26.662Z,100077.75
2022-09-12T08:31:57.182Z,100093.28
2022-09-12T08:34:25.165Z,100088.59
2022-09-12T08:36:54.714Z,100094.78
2022-09-12T08:39:36.458Z,100087.41
2022-09-12T08:42:24.518Z,100092.75
2022-09-12T08:45:10.271Z,100096.19
2022-09-12T08:47:43.774Z,100103.44
2022-09-12T08:50:11.729Z,100104.75
2022-09-12T08:53:02.531Z,100111.22
2022-09-12T08:55:59.796Z,100105.41
2022-09-12T08:58:29.173Z,100113.28
2022-09-12T09:01:39.209Z,100114.16
2022-09-12T09:04:28.906Z,100105.44
2022-09-12T09:07:04.261Z,100104.84
2022-09-12T09:10:01.133Z,100108.75
2022-09-12T09:12:47.835Z,100104.38
2022-09-12T09:15:32.187Z,100111.53
2022-09-12T09:18:11.192Z,100109.31
2022-09-12T09:21:00.333Z,100107.91
2022-09-12T09:23:32.121Z,100099.44
2022-09-12T09:26:14.877Z,100086.75
2022-09-12T09:28:53.936Z,100089.00
2022-09-12T09:31:25.254Z,100084.72
2022-09-12T09:33:57.236Z,100082.97
2022-09-12T09:36:30.498Z,100097.38
2022-09-12T09:39:31.590Z,100093.75
2022-09-12T09:42:18.738Z,100096.44
2022-09-12T09:44:49.189Z,100090.06
2022-09-12T09:50:00.506Z,100077.50
2022-09-12T09:52:31.010Z,100071.66
2022-09-12T09:55:01.431Z,100077.28
2022-09-12T09:57:34.915Z,100073.38
2022-09-12T10:00:30.769Z,100084.81
2022-09-12T10:03:26.587Z,100076.84
2022-09-12T10:05:57.161Z,100076.78
2022-09-12T10:08:24.432Z,100073.34
2022-09-12T10:11:17.585Z,100079.22
2022-09-12T10:13:53.736Z,100076.00
2022-09-12T10:16:28.776Z,100094.03
2022-09-12T10:19:03.359Z,100078.91
2022-09-12T10:25:10.775Z,100087.19
2022-09-12T10:27:38.780Z,100089.47
2022-09-12T10:33:07.758Z,100088.75
2022-09-12T10:35:49.652Z,100091.22
2022-09-12T10:38:26.923Z,100081.06
2022-09-12T10:41:03.833Z,100085.50
2022-09-12T10:43:37.942Z,100085.25
2022-09-12T10:46:17.893Z,100082.56
2022-09-12T10:48:47.337Z,100095.28
2022-09-12T10:51:27.689Z,100085.34
2022-09-12T10:53:57.655Z,100087.00
2022-09-12T10:56:31.013Z,100083.03
2022-09-12T11:02:58.784Z,100100.28
2022-09-12T11:05:41.313Z,100104.09
2022-09-12T11:08:14.154Z,100106.88
2022-09-12T11:11:06.276Z,100100.00
2022-09-12T11:14:03.406Z,100102.28
2022-09-12T11:16:54.323Z,100095.91
2022-09-12T11:19:33.640Z,100099.81
2022-09-12T11:22:17.522Z,100096.72
2022-09-12T11:25:19.062Z,100098.66
2022-09-12T11:27:57.047Z,100105.81
2022-09-12T11:30:24.289Z,100112.66
2022-09-12T11:32:54.222Z,100105.91
2022-09-12T11:35:54.965Z,100099.66
2022-09-12T11:38:58.932Z,100099.03
2022-09-12T11:41:36.467Z,100090.63
2022-09-12T11:44:24.673Z,100095.13
2022-09-12T11:49:47.373Z,100097.38
2022-09-12T11:52:21.089Z,100088.81
2022-09-12T11:55:01.323Z,100095.81
2022-09-12T11:57:36.419Z,100082.72
2022-09-12T12:00:15.304Z,100074.22
2022-09-12T12:02:59.893Z,100096.28
2022-09-12T12:05:52.466Z,100094.13
2022-09-12T12:08:24.360Z,100097.69
2022-09-12T12:11:06.769Z,100104.25
2022-09-12T12:13:46.026Z,100099.69
2022-09-12T12:16:15.949Z,100103.38
2022-09-12T12:18:46.337Z,100097.22
2022-09-12T12:21:40.158Z,100104.13
2022-09-12T12:26:55.284Z,100096.97
2022-09-12T12:29:22.758Z,100106.06
2022-09-12T12:32:05.193Z,100104.44
2022-09-12T12:34:45.555Z,100105.41
2022-09-12T12:37:19.174Z,100103.59
2022-09-12T12:39:48.613Z,100112.66
2022-09-12T12:42:34.346Z,100103.25
2022-09-12T12:45:24.282Z,100121.25
2022-09-12T12:48:08.810Z,100112.94
2022-09-12T12:50:40.760Z,100109.78
2022-09-12T12:53:18.396Z,100114.19
2022-09-12T12:55:52.530Z,100114.19
2022-09-12T12:58:40.752Z,100103.31
2022-09-12T13:01:19.021Z,100110.38
2022-09-12T13:04:01.506Z,100106.31
2022-09-12T13:06:36.425Z,100105.84
2022-09-12T13:09:24.509Z,100107.97
2022-09-12T13:12:05.893Z,100107.16
2022-09-12T13:14:59.751Z,100094.19
2022-09-12T13:17:44.164Z,100103.72
2022-09-12T13:20:29.702Z,100110.56
2022-09-12T13:22:58.464Z,100114.72
2022-09-12T13:25:28.979Z,100113.25
2022-09-12T13:28:04.301Z,100114.97
2022-09-12T13:30:36.304Z,100116.19
2022-09-12T13:33:27.207Z,100115.34
2022-09-12T13:36:18.282Z,100112.56
2022-09-12T13:39:24.708Z,100114.63
2022-09-12T13:42:15.443Z,100116.47
2022-09-12T13:45:16.987Z,100123.53
2022-09-12T13:48:06.726Z,100114.38
2022-09-12T13:50:41.717Z,100123.03
2022-09-12T13:53:17.884Z,100115.59
2022-09-12T13:55:52.104Z,100118.66
2022-09-12T13:58:26.750Z,100110.94
2022-09-12T14:01:13.794Z,100121.31
2022-09-12T14:04:15.346Z,100121.72
2022-09-12T14:06:50.150Z,100104.00
2022-09-12T14:09:25.230Z,100114.00
2022-09-12T14:11:53.890Z,100114.63
2022-09-12T14:14:31.502Z,100123.31
2022-09-12T14:17:00.690Z,100112.56
2022-09-12T14:19:29.357Z,100113.50
2022-09-12T14:21:57.797Z,100112.66
2022-09-12T14:24:25.207Z,100110.44
2022-09-12T14:26:56.874Z,100102.03
2022-09-12T14:29:25.415Z,100098.00
2022-09-12T14:32:04.136Z,100105.44
2022-09-12T14:34:31.341Z,100112.53
2022-09-12T14:36:59.128Z,100103.00
2022-09-12T14:39:41.747Z,100094.59
2022-09-12T14:42:26.590Z,100105.81
2022-09-12T14:45:31.790Z,100114.88
2022-09-12T14:48:02.436Z,100109.69
2022-09-12T14:50:35.503Z,100112.97
2022-09-12T14:53:08.438Z,100103.91
2022-09-12T14:55:58.020Z,100103.97
2022-09-12T14:58:28.802Z,100106.03
2022-09-12T15:01:23.019Z,100105.41
2022-09-12T15:03:54.407Z,100098.94
2022-09-12T15:06:33.090Z,100093.56
2022-09-12T15:09:06.048Z,100094.56
2022-09-12T15:11:33.989Z,100115.50
2022-09-12T15:14:22.209Z,100108.88
2022-09-12T15:16:49.313Z,100106.41
2022-09-12T15:19:16.831Z,100112.34
2022-09-12T15:21:44.004Z,100104.31
2022-09-12T15:24:11.208Z,100110.88
2022-09-12T15:26:38.681Z,100103.91
2022-09-12T15:29:05.683Z,100102.31
2022-09-12T15:31:34.607Z,100112.06
2022-09-12T15:34:12.864Z,100111.31
2022-09-12T15:36:39.837Z,100118.09
2022-09-12T15:39:07.281Z,100116.47
2022-09-12T15:41:37.884Z,100106.81
2022-09-12T15:46:51.998Z,100115.53
2022-09-12T15:49:21.571Z,100113.28
2022-09-12T15:51:53.160Z,100116.41
2022-09-12T15:54:26.112Z,100124.16
2022-09-12T15:57:00.890Z,100131.97
2022-09-12T15:59:36.365Z,100137.88
2022-09-12T16:02:11.787Z,100134.88
2022-09-12T16:04:39.436Z,100132.63
2022-09-12T16:07:08.698Z,100126.63
2022-09-12T16:09:37.524Z,100134.78
2022-09-12T16:12:09.344Z,100134.16
2022-09-12T16:14:36.338Z,100136.06
2022-09-12T16:17:03.518Z,100146.34
2022-09-12T16:19:33.123Z,100138.84
2022-09-12T16:22:00.998Z,100149.84
2022-09-12T16:24:34.320Z,100149.34
2022-09-12T16:27:17.882Z,100145.13
2022-09-12T16:29:45.988Z,100142.63
2022-09-12T16:32:13.109Z,100141.03
2022-09-12T16:34:40.092Z,100141.13
2022-09-12T16:37:07.443Z,100148.22
2022-09-12T16:39:34.850Z,100150.00
2022-09-12T16:42:03.445Z,100150.88
2022-09-12T16:44:31.117Z,100150.00
2022-09-12T16:46:58.048Z,100155.25
2022-09-12T16:49:27.232Z,100155.25
2022-09-12T16:51:54.526Z,100151.09
2022-09-12T16:54:21.927Z,100152.81
2022-09-12T16:56:50.634Z,100145.63
2022-09-12T16:59:18.464Z,100159.88
2022-09-12T17:01:45.952Z,100159.97
2022-09-12T17:04:13.288Z,100152.06
2022-09-12T17:06:43.145Z,100160.19
2022-09-12T17:12:09.455Z,100156.19
2022-09-12T17:14:36.520Z,100155.66
2022-09-12T17:17:03.531Z,100165.81
2022-09-12T17:19:33.984Z,100158.84
2022-09-12T17:22:01.357Z,100171.88
2022-09-12T17:24:28.315Z,100164.13
2022-09-12T17:26:57.202Z,100180.50
2022-09-12T17:29:24.300Z,100179.91
2022-09-12T17:31:51.307Z,100181.00
2022-09-12T17:34:23.082Z,100183.13
2022-09-12T17:36:50.912Z,100173.69
2022-09-12T17:39:17.939Z,100182.75
2022-09-12T17:41:46.243Z,100182.09
2022-09-12T17:44:15.319Z,100174.25
2022-09-12T17:46:43.497Z,100187.84
2022-09-12T17:49:24.738Z,100180.84
2022-09-12T17:51:58.562Z,100187.25
2022-09-12T17:54:26.011Z,100175.03
2022-09-12T17:56:56.453Z,100183.38
2022-09-12T17:59:24.979Z,100181.72
2022-09-12T18:04:55.554Z,100186.53
2022-09-12T18:07:22.859Z,100185.00
2022-09-12T18:09:51.478Z,100182.72
2022-09-12T18:12:29.858Z,100198.84
2022-09-12T18:15:01.427Z,100188.28
2022-09-12T18:20:25.351Z,100181.34
2022-09-12T18:22:52.429Z,100182.03
2022-09-12T18:25:19.498Z,100190.06
2022-09-12T18:27:46.801Z,100176.97
2022-09-12T18:30:21.502Z,100179.63
2022-09-12T18:32:52.572Z,100176.97
2022-09-12T18:35:19.693Z,100171.78
2022-09-12T18:37:49.038Z,100172.94
2022-09-12T18:40:16.344Z,100172.19
2022-09-12T18:42:43.393Z,100177.53
2022-09-12T18:45:10.927Z,100176.69
2022-09-12T18:47:38.178Z,100167.91
2022-09-12T18:50:06.639Z,100172.34
2022-09-12T18:52:33.804Z,100165.50
2022-09-12T18:55:01.210Z,100172.47
2022-09-12T18:57:30.639Z,100164.47
2022-09-12T19:00:00.026Z,100167.31
2022-09-12T19:02:28.603Z,100164.06
2022-09-12T19:04:58.928Z,100167.78
2022-09-12T19:07:26.950Z,100176.66
2022-09-12T19:09:55.463Z,100166.84
2022-09-12T19:12:22.420Z,100166.94
2022-09-12T19:15:09.960Z,100171.22
2022-09-12T19:17:37.257Z,100164.34
2022-09-12T19:20:05.180Z,100172.56
2022-09-12T19:22:32.471Z,100169.00
2022-09-12T19:25:00.322Z,100170.16
2022-09-12T19:27:27.446Z,100167.38
2022-09-12T19:29:59.584Z,100161.28
2022-09-12T19:32:26.891Z,100156.72
2022-09-12T19:34:56.460Z,100163.09
2022-09-12T19:37:24.568Z,100144.41
2022-09-12T19:39:52.061Z,100147.16
2022-09-12T19:42:26.098Z,100147.16
2022-09-12T19:44:59.530Z,100139.63
2022-09-12T19:47:30.458Z,100130.84
2022-09-12T19:49:57.850Z,100131.91
2022-09-12T19:52:24.804Z,100145.34
2022-09-12T19:54:51.786Z,100134.88
2022-09-12T19:57:22.958Z,100136.75
2022-09-12T19:59:51.485Z,100147.63
2022-09-12T20:02:22.007Z,100149.53
2022-09-12T20:05:07.291Z,100145.22
2022-09-12T20:07:35.883Z,100144.47
2022-09-12T20:10:03.501Z,100133.03
2022-09-12T20:12:30.562Z,100135.09
2022-09-12T20:14:58.072Z,100135.09
2022-09-12T20:17:25.514Z,100138.91
2022-09-12T20:19:52.528Z,100132.03
2022-09-12T20:22:20.349Z,100137.66
2022-09-12T20:24:47.291Z,100140.41
2022-09-12T20:27:14.586Z,100147.66
2022-09-12T20:29:42.090Z,100154.03
2022-09-12T20:32:10.285Z,100155.81
2022-09-12T20:34:38.396Z,100159.44
2022-09-12T20:37:06.620Z,100161.28
2022-09-12T20:39:34.055Z,100165.63
2022-09-12T20:42:01.087Z,100166.41
2022-09-12T20:44:29.108Z,100166.31
2022-09-12T20:46:57.182Z,100161.75
2022-09-12T20:49:24.704Z,100162.44
2022-09-12T20:51:52.325Z,100158.63
2022-09-12T20:54:20.890Z,100160.25
2022-09-12T20:56:48.259Z,100155.59
2022-09-12T20:59:15.648Z,100154.47
2022-09-12T21:01:44.154Z,100155.16
2022-09-12T21:04:14.871Z,100151.44
2022-09-12T21:06:44.410Z,100147.69
2022-09-12T21:09:11.942Z,100152.09
2022-09-12T21:11:42.799Z,100150.19
2022-09-12T21:14:12.333Z,100142.97
2022-09-12T21:16:39.535Z,100146.41
2022-09-12T21:19:06.834Z,100141.06
2022-09-12T21:21:34.508Z,100131.91
2022-09-12T21:24:05.789Z,100137.16
2022-09-12T21:26:33.168Z,100137.91
2022-09-12T21:29:02.477Z,100133.50
2022-09-12T21:31:30.571Z,100143.94
2022-09-12T21:34:00.205Z,100130.59
2022-09-12T21:36:28.342Z,100131.34
2022-09-12T21:38:58.315Z,100138.38
2022-09-12T21:41:25.447Z,100134.78
2022-09-12T21:43:53.094Z,100131.13
2022-09-12T21:46:20.181Z,100128.69
2022-09-12T21:48:47.344Z,100126.84
2022-09-12T21:51:14.686Z,100135.72
2022-09-12T21:53:41.861Z,100121.59
2022-09-12T21:56:09.116Z,100139.34
2022-09-12T21:58:37.766Z,100131.34
2022-09-12T22:01:06.168Z,100140.22
2022-09-12T22:03:33.329Z,100131.34
2022-09-12T22:06:02.922Z,100131.13
2022-09-12T22:08:31.275Z,100127.78
2022-09-12T22:10:59.757Z,100135.81
2022-09-12T22:13:27.180Z,100128.69
2022-09-12T22:15:54.371Z,100124.94
2022-09-12T22:18:21.334Z,100133.81
2022-09-12T22:20:48.579Z,100121.50
2022-09-12T22:23:34.113Z,100122.44
2022-09-12T22:26:03.189Z,100119.91
2022-09-12T22:28:32.153Z,100121.69
2022-09-12T22:30:59.737Z,100116.66
2022-09-12T22:33:27.825Z,100118.63
2022-09-12T22:35:54.796Z,100120.44
2022-09-12T22:38:22.481Z,100122.06
2022-09-12T22:40:49.565Z,100113.97
2022-09-12T22:43:16.858Z,100115.66
2022-09-12T22:45:43.813Z,100112.91
2022-09-12T22:48:11.093Z,100115.59
2022-09-12T22:50:38.009Z,100112.91
2022-09-12T22:53:05.925Z,100113.78
2022-09-12T22:55:33.372Z,100111.88
2022-09-12T22:58:00.837Z,100114.66
2022-09-12T23:00:28.070Z,100103.97
2022-09-12T23:02:59.692Z,100113.78
2022-09-12T23:05:45.412Z,100102.31
2022-09-12T23:08:18.117Z,100113.13
2022-09-12T23:10:45.556Z,100103.47
2022-09-12T23:13:13.040Z,100100.78
2022-09-12T23:15:40.102Z,100109.78
2022-09-12T23:18:08.188Z,100101.00
2022-09-12T23:20:35.147Z,100096.59
2022-09-12T23:23:02.122Z,100088.72
2022-09-12T23:25:29.340Z,100094.13
2022-09-12T23:27:56.536Z,100090.50
2022-09-12T23:30:23.496Z,100089.34
2022-09-12T23:32:50.779Z,100082.09
2022-09-12T23:35:20.983Z,100085.84
2022-09-12T23:37:48.101Z,100090.41
2022-09-12T23:40:15.411Z,100089.47
2022-09-12T23:42:42.501Z,100090.31
2022-09-12T23:45:10.445Z,100088.59
2022-09-12T23:47:37.828Z,100086.88
2022-09-12T23:50:05.081Z,100088.78
2022-09-12T23:52:32.234Z,100081.94
2022-09-12T23:55:02.526Z,100076.69
2022-09-12T23:57:29.510Z,100082.00
2022-09-12T23:59:56.544Z,100075.81
